sensor_id;sensor_type;location;lat;lon;timestamp;pressure;altitude;pressure_sealevel;temperature;humidity
28004;BME280;15330;51.234;6.754;2023-02-10T00:02:13;103064.16;;;4.61;86.78
28004;BME280;15330;51.234;6.754;2023-02-10T00:04:38;103067.09;;;4.55;86.70
28004;BME280;15330;51.234;6.754;2023-02-10T00:07:03;103062.72;;;4.54;86.83
28004;BME280;15330;51.234;6.754;2023-02-10T00:09:29;103063.16;;;4.63;86.98
28004;BME280;15330;51.234;6.754;2023-02-10T00:11:54;103065.94;;;4.60;86.86
28004;BME280;15330;51.234;6.754;2023-02-10T00:14:22;103068.47;;;4.63;86.76
28004;BME280;15330;51.234;6.754;2023-02-10T00:16:52;103070.69;;;4.72;86.50
28004;BME280;15330;51.234;6.754;2023-02-10T00:19:21;103069.03;;;4.70;86.37
28004;BME280;15330;51.234;6.754;2023-02-10T00:21:47;103081.22;;;4.74;85.66
28004;BME280;15330;51.234;6.754;2023-02-10T00:24:12;103086.53;;;4.74;86.70
28004;BME280;15330;51.234;6.754;2023-02-10T00:26:37;103082.94;;;4.75;86.34
28004;BME280;15330;51.234;6.754;2023-02-10T00:29:03;103080.06;;;4.61;86.48
28004;BME280;15330;51.234;6.754;2023-02-10T00:31:28;103077.47;;;4.78;86.22
28004;BME280;15330;51.234;6.754;2023-02-10T00:33:54;103082.03;;;4.76;85.44
28004;BME280;15330;51.234;6.754;2023-02-10T00:36:20;103066.66;;;4.64;86.05
28004;BME280;15330;51.234;6.754;2023-02-10T00:38:46;103080.56;;;4.69;86.16
28004;BME280;15330;51.234;6.754;2023-02-10T00:41:14;103084.47;;;4.41;86.88
28004;BME280;15330;51.234;6.754;2023-02-10T00:43:40;103084.38;;;4.63;86.46
28004;BME280;15330;51.234;6.754;2023-02-10T00:46:07;103082.94;;;4.75;85.29
28004;BME280;15330;51.234;6.754;2023-02-10T00:48:33;103081.91;;;4.59;86.14
28004;BME280;15330;51.234;6.754;2023-02-10T00:50:58;103075.09;;;4.53;86.59
28004;BME280;15330;51.234;6.754;2023-02-10T00:53:24;103084.88;;;4.71;85.87
28004;BME280;15330;51.234;6.754;2023-02-10T00:55:50;103077.78;;;4.72;86.24
28004;BME280;15330;51.234;6.754;2023-02-10T00:58:15;103081.00;;;4.78;85.64
28004;BME280;15330;51.234;6.754;2023-02-10T01:00:40;103082.94;;;4.75;86.02
28004;BME280;15330;51.234;6.754;2023-02-10T01:03:06;103084.06;;;4.69;86.38
28004;BME280;15330;51.234;6.754;2023-02-10T01:05:31;103083.56;;;4.61;86.48
28004;BME280;15330;51.234;6.754;2023-02-10T01:07:57;103076.66;;;4.57;86.66
28004;BME280;15330;51.234;6.754;2023-02-10T01:10:23;103083.78;;;4.57;86.99
28004;BME280;15330;51.234;6.754;2023-02-10T01:12:48;103088.13;;;4.58;86.58
28004;BME280;15330;51.234;6.754;2023-02-10T01:15:13;103088.00;;;4.61;86.69
28004;BME280;15330;51.234;6.754;2023-02-10T01:17:39;103085.72;;;4.72;86.02
28004;BME280;15330;51.234;6.754;2023-02-10T01:20:05;103096.94;;;4.58;86.48
28004;BME280;15330;51.234;6.754;2023-02-10T01:22:34;103100.34;;;4.62;86.10
28004;BME280;15330;51.234;6.754;2023-02-10T01:25:00;103096.94;;;4.58;86.77
28004;BME280;15330;51.234;6.754;2023-02-10T01:27:26;103098.34;;;4.47;87.49
28004;BME280;15330;51.234;6.754;2023-02-10T01:29:51;103102.25;;;4.58;87.22
28004;BME280;15330;51.234;6.754;2023-02-10T01:32:16;103104.66;;;4.44;87.66
28004;BME280;15330;51.234;6.754;2023-02-10T01:34:42;103105.25;;;4.51;87.62
28004;BME280;15330;51.234;6.754;2023-02-10T01:37:07;103107.72;;;4.55;87.01
28004;BME280;15330;51.234;6.754;2023-02-10T01:39:32;103110.78;;;4.46;87.96
28004;BME280;15330;51.234;6.754;2023-02-10T01:41:58;103110.69;;;4.48;88.22
28004;BME280;15330;51.234;6.754;2023-02-10T01:46:48;103111.53;;;4.48;88.25
28004;BME280;15330;51.234;6.754;2023-02-10T01:49:17;103105.25;;;4.51;87.58
28004;BME280;15330;51.234;6.754;2023-02-10T01:54:19;103114.41;;;4.43;88.21
28004;BME280;15330;51.234;6.754;2023-02-10T01:56:47;103111.81;;;4.42;88.54
28004;BME280;15330;51.234;6.754;2023-02-10T01:59:13;103114.13;;;4.50;88.54
28004;BME280;15330;51.234;6.754;2023-02-10T02:01:39;103115.28;;;4.44;88.99
28004;BME280;15330;51.234;6.754;2023-02-10T02:04:04;103122.34;;;4.43;88.40
28004;BME280;15330;51.234;6.754;2023-02-10T02:06:30;103119.78;;;4.42;89.04
28004;BME280;15330;51.234;6.754;2023-02-10T02:08:56;103119.44;;;4.29;89.61
28004;BME280;15330;51.234;6.754;2023-02-10T02:11:45;103126.97;;;4.38;89.28
28004;BME280;15330;51.234;6.754;2023-02-10T02:14:35;103117.06;;;4.43;89.31
28004;BME280;15330;51.234;6.754;2023-02-10T02:17:10;103122.19;;;4.47;89.34
28004;BME280;15330;51.234;6.754;2023-02-10T02:26:11;103138.19;;;4.45;89.43
28004;BME280;15330;51.234;6.754;2023-02-10T02:32:06;103135.53;;;4.45;89.60
28004;BME280;15330;51.234;6.754;2023-02-10T02:34:46;103139.69;;;4.51;89.39
28004;BME280;15330;51.234;6.754;2023-02-10T02:37:19;103137.41;;;4.43;89.74
28004;BME280;15330;51.234;6.754;2023-02-10T02:39:49;103139.31;;;4.39;90.22
28004;BME280;15330;51.234;6.754;2023-02-10T02:44:45;103140.38;;;4.35;90.22
28004;BME280;15330;51.234;6.754;2023-02-10T02:47:21;103141.78;;;4.24;91.29
28004;BME280;15330;51.234;6.754;2023-02-10T02:50:06;103141.38;;;4.13;91.64
28004;BME280;15330;51.234;6.754;2023-02-10T02:58:00;103143.56;;;4.23;91.18
28004;BME280;15330;51.234;6.754;2023-02-10T03:00:29;103148.63;;;4.28;90.78
28004;BME280;15330;51.234;6.754;2023-02-10T03:02:57;103151.09;;;4.32;90.69
28004;BME280;15330;51.234;6.754;2023-02-10T03:05:28;103144.53;;;4.21;91.16
28004;BME280;15330;51.234;6.754;2023-02-10T03:07:54;103153.53;;;4.17;91.77
28004;BME280;15330;51.234;6.754;2023-02-10T03:10:20;103143.84;;;4.16;92.10
28004;BME280;15330;51.234;6.754;2023-02-10T03:12:46;103143.69;;;4.20;91.69
28004;BME280;15330;51.234;6.754;2023-02-10T03:15:12;103141.03;;;4.20;91.78
28004;BME280;15330;51.234;6.754;2023-02-10T03:17:37;103147.38;;;4.16;91.98
28004;BME280;15330;51.234;6.754;2023-02-10T03:20:03;103140.09;;;4.21;91.49
28004;BME280;15330;51.234;6.754;2023-02-10T03:22:29;103126.44;;;4.10;92.27
28004;BME280;15330;51.234;6.754;2023-02-10T03:24:54;103121.13;;;3.90;92.85
28004;BME280;15330;51.234;6.754;2023-02-10T03:27:19;103115.03;;;3.88;93.02
28004;BME280;15330;51.234;6.754;2023-02-10T03:29:45;103111.94;;;3.98;92.56
28004;BME280;15330;51.234;6.754;2023-02-10T03:32:11;103117.69;;;3.88;93.57
28004;BME280;15330;51.234;6.754;2023-02-10T03:34:36;103105.91;;;3.95;93.18
28004;BME280;15330;51.234;6.754;2023-02-10T03:37:02;103114.84;;;3.92;93.75
28004;BME280;15330;51.234;6.754;2023-02-10T03:39:27;103100.00;;;3.88;94.10
28004;BME280;15330;51.234;6.754;2023-02-10T03:41:52;103093.19;;;3.83;93.90
28004;BME280;15330;51.234;6.754;2023-02-10T03:44:19;103100.84;;;3.68;94.74
28004;BME280;15330;51.234;6.754;2023-02-10T03:46:44;103106.56;;;3.80;94.47
28004;BME280;15330;51.234;6.754;2023-02-10T03:49:09;103102.94;;;3.82;94.08
28004;BME280;15330;51.234;6.754;2023-02-10T03:51:35;103105.63;;;3.81;93.94
28004;BME280;15330;51.234;6.754;2023-02-10T03:54:00;103108.88;;;3.87;92.85
28004;BME280;15330;51.234;6.754;2023-02-10T03:56:26;103115.78;;;3.91;93.08
28004;BME280;15330;51.234;6.754;2023-02-10T03:58:51;103121.78;;;3.95;92.93
28004;BME280;15330;51.234;6.754;2023-02-10T04:01:17;103119.06;;;3.96;92.57
28004;BME280;15330;51.234;6.754;2023-02-10T04:03:43;103124.63;;;3.90;93.22
28004;BME280;15330;51.234;6.754;2023-02-10T04:06:10;103133.34;;;3.94;93.46
28004;BME280;15330;51.234;6.754;2023-02-10T04:08:36;103133.03;;;3.80;93.94
28004;BME280;15330;51.234;6.754;2023-02-10T04:11:03;103136.09;;;3.69;94.15
28004;BME280;15330;51.234;6.754;2023-02-10T04:13:28;103143.88;;;3.74;94.39
28004;BME280;15330;51.234;6.754;2023-02-10T04:16:16;103141.03;;;3.78;93.97
28004;BME280;15330;51.234;6.754;2023-02-10T04:18:42;103132.97;;;3.81;93.63
28004;BME280;15330;51.234;6.754;2023-02-10T04:21:09;103137.56;;;3.76;94.13
28004;BME280;15330;51.234;6.754;2023-02-10T04:23:35;103134.75;;;3.59;94.71
28004;BME280;15330;51.234;6.754;2023-02-10T04:26:01;103137.84;;;3.70;94.63
28004;BME280;15330;51.234;6.754;2023-02-10T04:28:27;103136.75;;;3.74;94.57
28004;BME280;15330;51.234;6.754;2023-02-10T04:30:53;103133.13;;;3.55;95.38
28004;BME280;15330;51.234;6.754;2023-02-10T04:33:19;103136.38;;;3.63;94.90
28004;BME280;15330;51.234;6.754;2023-02-10T04:35:49;103138.75;;;3.69;94.50
28004;BME280;15330;51.234;6.754;2023-02-10T04:38:15;103145.50;;;3.54;95.27
28004;BME280;15330;51.234;6.754;2023-02-10T04:40:40;103145.13;;;3.63;94.91
28004;BME280;15330;51.234;6.754;2023-02-10T04:43:07;103150.03;;;3.52;95.70
28004;BME280;15330;51.234;6.754;2023-02-10T04:45:32;103155.66;;;3.65;95.10
28004;BME280;15330;51.234;6.754;2023-02-10T04:47:58;103157.22;;;3.71;94.70
28004;BME280;15330;51.234;6.754;2023-02-10T04:50:23;103160.47;;;3.77;93.73
28004;BME280;15330;51.234;6.754;2023-02-10T04:52:48;103161.22;;;3.81;93.74
28004;BME280;15330;51.234;6.754;2023-02-10T04:55:14;103165.72;;;3.79;93.35
28004;BME280;15330;51.234;6.754;2023-02-10T04:57:39;103165.81;;;3.76;94.17
28004;BME280;15330;51.234;6.754;2023-02-10T05:00:05;103161.53;;;3.73;94.81
28004;BME280;15330;51.234;6.754;2023-02-10T05:02:31;103154.94;;;3.61;95.07
28004;BME280;15330;51.234;6.754;2023-02-10T05:04:56;103162.88;;;3.61;95.03
28004;BME280;15330;51.234;6.754;2023-02-10T05:07:22;103157.59;;;3.61;95.17
28004;BME280;15330;51.234;6.754;2023-02-10T05:09:47;103153.16;;;3.62;95.19
28004;BME280;15330;51.234;6.754;2023-02-10T05:12:12;103152.91;;;3.68;95.18
28004;BME280;15330;51.234;6.754;2023-02-10T05:14:38;103144.84;;;3.71;94.99
28004;BME280;15330;51.234;6.754;2023-02-10T05:17:03;103147.31;;;4.18;94.00
28004;BME280;15330;51.234;6.754;2023-02-10T05:19:28;103147.72;;;4.29;93.34
28004;BME280;15330;51.234;6.754;2023-02-10T05:21:54;103146.78;;;4.30;92.49
28004;BME280;15330;51.234;6.754;2023-02-10T05:24:19;103153.28;;;4.23;93.31
28004;BME280;15330;51.234;6.754;2023-02-10T05:26:44;103154.28;;;4.40;92.62
28004;BME280;15330;51.234;6.754;2023-02-10T05:29:10;103147.13;;;4.42;92.47
28004;BME280;15330;51.234;6.754;2023-02-10T05:31:35;103152.94;;;4.10;93.75
28004;BME280;15330;51.234;6.754;2023-02-10T05:34:00;103155.38;;;3.94;94.43
28004;BME280;15330;51.234;6.754;2023-02-10T05:36:26;103166.56;;;3.79;95.10
28004;BME280;15330;51.234;6.754;2023-02-10T05:38:51;103172.53;;;3.84;95.13
28004;BME280;15330;51.234;6.754;2023-02-10T05:41:35;103170.09;;;3.80;95.47
28004;BME280;15330;51.234;6.754;2023-02-10T05:44:00;103175.13;;;3.64;95.39
28004;BME280;15330;51.234;6.754;2023-02-10T05:46:25;103167.94;;;3.67;95.11
28004;BME280;15330;51.234;6.754;2023-02-10T05:48:51;103175.31;;;3.59;95.65
28004;BME280;15330;51.234;6.754;2023-02-10T05:51:16;103172.72;;;3.58;95.89
28004;BME280;15330;51.234;6.754;2023-02-10T05:53:41;103174.13;;;3.66;95.64
28004;BME280;15330;51.234;6.754;2023-02-10T05:56:07;103182.88;;;3.68;95.54
28004;BME280;15330;51.234;6.754;2023-02-10T05:58:32;103188.34;;;3.64;95.10
28004;BME280;15330;51.234;6.754;2023-02-10T06:00:58;103186.88;;;3.57;96.16
28004;BME280;15330;51.234;6.754;2023-02-10T06:03:24;103179.84;;;3.56;95.31
28004;BME280;15330;51.234;6.754;2023-02-10T06:05:49;103182.34;;;3.60;95.13
28004;BME280;15330;51.234;6.754;2023-02-10T06:08:15;103189.22;;;3.64;94.75
28004;BME280;15330;51.234;6.754;2023-02-10T06:10:40;103182.34;;;3.60;95.13
28004;BME280;15330;51.234;6.754;2023-02-10T06:13:06;103188.75;;;3.53;95.23
28004;BME280;15330;51.234;6.754;2023-02-10T06:15:31;103185.69;;;3.64;94.59
28004;BME280;15330;51.234;6.754;2023-02-10T06:17:56;103182.69;;;3.95;95.84
28004;BME280;15330;51.234;6.754;2023-02-10T06:20:21;103186.59;;;4.28;98.17
28004;BME280;15330;51.234;6.754;2023-02-10T06:22:47;103187.53;;;4.27;93.75
28004;BME280;15330;51.234;6.754;2023-02-10T06:25:12;103190.97;;;4.29;92.45
28004;BME280;15330;51.234;6.754;2023-02-10T06:27:38;103191.59;;;3.94;93.45
28004;BME280;15330;51.234;6.754;2023-02-10T06:30:03;103189.47;;;3.80;93.52
28004;BME280;15330;51.234;6.754;2023-02-10T06:32:28;103193.59;;;3.65;94.71
28004;BME280;15330;51.234;6.754;2023-02-10T06:34:54;103195.22;;;3.46;95.40
28004;BME280;15330;51.234;6.754;2023-02-10T06:37:19;103205.28;;;3.60;94.98
28004;BME280;15330;51.234;6.754;2023-02-10T06:39:45;103198.78;;;3.45;95.58
28004;BME280;15330;51.234;6.754;2023-02-10T06:44:38;103216.59;;;3.63;96.98
28004;BME280;15330;51.234;6.754;2023-02-10T06:47:03;103223.41;;;3.92;96.05
28004;BME280;15330;51.234;6.754;2023-02-10T06:49:29;103223.59;;;4.10;94.31
28004;BME280;15330;51.234;6.754;2023-02-10T06:51:54;103222.41;;;3.95;93.51
28004;BME280;15330;51.234;6.754;2023-02-10T06:54:20;103224.22;;;4.36;93.91
28004;BME280;15330;51.234;6.754;2023-02-10T06:56:45;103219.22;;;4.91;92.23
28004;BME280;15330;51.234;6.754;2023-02-10T06:59:12;103222.72;;;4.51;91.25
28004;BME280;15330;51.234;6.754;2023-02-10T07:01:37;103212.28;;;5.46;90.08
28004;BME280;15330;51.234;6.754;2023-02-10T07:04:03;103210.06;;;4.58;89.21
28004;BME280;15330;51.234;6.754;2023-02-10T07:06:28;103219.53;;;3.79;92.42
28004;BME280;15330;51.234;6.754;2023-02-10T07:08:53;103216.63;;;3.85;91.71
28004;BME280;15330;51.234;6.754;2023-02-10T07:11:19;103219.03;;;3.46;93.79
28004;BME280;15330;51.234;6.754;2023-02-10T07:13:44;103211.03;;;3.71;92.58
28004;BME280;15330;51.234;6.754;2023-02-10T07:16:10;103215.41;;;3.94;92.28
28004;BME280;15330;51.234;6.754;2023-02-10T07:18:39;103213.53;;;3.74;92.62
28004;BME280;15330;51.234;6.754;2023-02-10T07:21:05;103216.94;;;3.99;92.22
28004;BME280;15330;51.234;6.754;2023-02-10T07:23:30;103203.69;;;3.99;91.70
28004;BME280;15330;51.234;6.754;2023-02-10T07:25:55;103205.66;;;4.16;90.27
28004;BME280;15330;51.234;6.754;2023-02-10T07:28:21;103206.22;;;3.81;92.40
28004;BME280;15330;51.234;6.754;2023-02-10T07:30:46;103204.22;;;3.19;95.02
28004;BME280;15330;51.234;6.754;2023-02-10T07:33:11;103216.19;;;3.52;94.66
28004;BME280;15330;51.234;6.754;2023-02-10T07:35:37;103208.94;;;3.79;92.64
28004;BME280;15330;51.234;6.754;2023-02-10T07:38:02;103218.53;;;3.60;93.27
28004;BME280;15330;51.234;6.754;2023-02-10T07:40:27;103217.91;;;3.75;92.67
28004;BME280;15330;51.234;6.754;2023-02-10T07:42:55;103223.72;;;3.40;92.91
28004;BME280;15330;51.234;6.754;2023-02-10T07:45:21;103225.47;;;3.16;95.23
28004;BME280;15330;51.234;6.754;2023-02-10T07:47:46;103221.47;;;3.96;91.93
28004;BME280;15330;51.234;6.754;2023-02-10T07:50:12;103228.25;;;3.59;92.82
28004;BME280;15330;51.234;6.754;2023-02-10T07:52:37;103228.44;;;3.31;93.81
28004;BME280;15330;51.234;6.754;2023-02-10T07:55:03;103222.50;;;3.48;93.45
28004;BME280;15330;51.234;6.754;2023-02-10T07:57:29;103230.63;;;3.65;92.30
28004;BME280;15330;51.234;6.754;2023-02-10T07:59:55;103229.72;;;3.66;92.34
28004;BME280;15330;51.234;6.754;2023-02-10T08:02:20;103226.16;;;3.67;91.74
28004;BME280;15330;51.234;6.754;2023-02-10T08:04:46;103232.88;;;3.76;91.38
28004;BME280;15330;51.234;6.754;2023-02-10T08:07:11;103231.91;;;3.79;91.80
28004;BME280;15330;51.234;6.754;2023-02-10T08:09:37;103237.56;;;3.69;91.72
28004;BME280;15330;51.234;6.754;2023-02-10T08:12:03;103246.94;;;4.00;90.92
28004;BME280;15330;51.234;6.754;2023-02-10T08:14:28;103240.38;;;3.87;91.25
28004;BME280;15330;51.234;6.754;2023-02-10T08:16:54;103241.63;;;3.78;91.40
28004;BME280;15330;51.234;6.754;2023-02-10T08:19:19;103247.25;;;3.92;90.57
28004;BME280;15330;51.234;6.754;2023-02-10T08:21:45;103250.50;;;3.99;91.07
28004;BME280;15330;51.234;6.754;2023-02-10T08:24:10;103258.50;;;4.19;89.27
28004;BME280;15330;51.234;6.754;2023-02-10T08:26:36;103258.25;;;4.67;87.84
28004;BME280;15330;51.234;6.754;2023-02-10T08:29:02;103261.69;;;4.69;87.51
28004;BME280;15330;51.234;6.754;2023-02-10T08:31:27;103260.47;;;5.37;85.02
28004;BME280;15330;51.234;6.754;2023-02-10T08:33:53;103262.97;;;5.01;84.50
28004;BME280;15330;51.234;6.754;2023-02-10T08:36:20;103266.16;;;4.89;86.38
28004;BME280;15330;51.234;6.754;2023-02-10T08:38:46;103262.31;;;4.96;86.01
28004;BME280;15330;51.234;6.754;2023-02-10T08:41:12;103255.78;;;5.24;84.98
28004;BME280;15330;51.234;6.754;2023-02-10T08:43:38;103258.75;;;5.36;84.42
28004;BME280;15330;51.234;6.754;2023-02-10T08:46:03;103251.69;;;5.16;84.04
28004;BME280;15330;51.234;6.754;2023-02-10T08:48:29;103253.63;;;5.32;83.63
28004;BME280;15330;51.234;6.754;2023-02-10T08:50:55;103245.84;;;5.66;82.51
28004;BME280;15330;51.234;6.754;2023-02-10T08:53:21;103255.34;;;5.91;81.84
28004;BME280;15330;51.234;6.754;2023-02-10T08:56:00;103263.03;;;6.33;79.87
28004;BME280;15330;51.234;6.754;2023-02-10T08:58:26;103260.84;;;5.86;80.31
28004;BME280;15330;51.234;6.754;2023-02-10T09:00:52;103266.34;;;5.81;80.54
28004;BME280;15330;51.234;6.754;2023-02-10T09:03:17;103260.53;;;5.36;82.45
28004;BME280;15330;51.234;6.754;2023-02-10T09:05:43;103258.81;;;5.35;82.54
28004;BME280;15330;51.234;6.754;2023-02-10T09:08:11;103261.88;;;5.26;83.67
28004;BME280;15330;51.234;6.754;2023-02-10T09:10:39;103259.16;;;5.27;83.35
28004;BME280;15330;51.234;6.754;2023-02-10T09:13:05;103260.63;;;5.53;83.36
28004;BME280;15330;51.234;6.754;2023-02-10T09:15:35;103267.88;;;6.06;81.11
28004;BME280;15330;51.234;6.754;2023-02-10T09:18:01;103269.13;;;6.35;80.35
28004;BME280;15330;51.234;6.754;2023-02-10T09:20:26;103267.00;;;7.10;76.95
28004;BME280;15330;51.234;6.754;2023-02-10T09:22:51;103272.69;;;7.37;75.39
28004;BME280;15330;51.234;6.754;2023-02-10T09:25:17;103269.13;;;8.01;74.69
28004;BME280;15330;51.234;6.754;2023-02-10T09:27:42;103273.06;;;8.41;72.38
28004;BME280;15330;51.234;6.754;2023-02-10T09:30:08;103275.84;;;7.92;74.00
28004;BME280;15330;51.234;6.754;2023-02-10T09:32:34;103279.69;;;8.50;72.03
28004;BME280;15330;51.234;6.754;2023-02-10T09:34:59;103275.44;;;8.61;72.25
28004;BME280;15330;51.234;6.754;2023-02-10T09:37:24;103269.47;;;8.10;72.11
28004;BME280;15330;51.234;6.754;2023-02-10T09:39:50;103267.81;;;9.56;68.89
28004;BME280;15330;51.234;6.754;2023-02-10T09:44:59;103281.09;;;9.72;67.56
28004;BME280;15330;51.234;6.754;2023-02-10T09:47:40;103278.91;;;10.46;65.67
28004;BME280;15330;51.234;6.754;2023-02-10T09:50:32;103293.41;;;10.29;65.68
28004;BME280;15330;51.234;6.754;2023-02-10T09:53:19;103287.97;;;9.33;68.96
28004;BME280;15330;51.234;6.754;2023-02-10T09:55:53;103291.16;;;10.63;64.58
28004;BME280;15330;51.234;6.754;2023-02-10T09:58:53;103284.38;;;9.34;68.46
28004;BME280;15330;51.234;6.754;2023-02-10T10:01:29;103299.81;;;8.24;72.65
28004;BME280;15330;51.234;6.754;2023-02-10T10:04:01;103288.38;;;8.22;73.16
28004;BME280;15330;51.234;6.754;2023-02-10T10:06:33;103277.97;;;7.70;75.05
28004;BME280;15330;51.234;6.754;2023-02-10T10:09:29;103286.19;;;6.99;78.02
28004;BME280;15330;51.234;6.754;2023-02-10T10:11:58;103291.31;;;5.98;82.88
28004;BME280;15330;51.234;6.754;2023-02-10T10:14:31;103285.72;;;6.57;81.39
28004;BME280;15330;51.234;6.754;2023-02-10T10:17:15;103291.81;;;7.11;79.24
28004;BME280;15330;51.234;6.754;2023-02-10T10:30:45;103281.91;;;13.35;55.43
28004;BME280;15330;51.234;6.754;2023-02-10T10:33:23;103282.00;;;14.96;51.18
28004;BME280;15330;51.234;6.754;2023-02-10T10:35:50;103284.50;;;14.88;50.01
28004;BME280;15330;51.234;6.754;2023-02-10T10:38:23;103285.44;;;15.80;47.70
28004;BME280;15330;51.234;6.754;2023-02-10T10:40:52;103289.03;;;14.88;50.19
28004;BME280;15330;51.234;6.754;2023-02-10T10:43:29;103291.41;;;17.01;45.06
28004;BME280;15330;51.234;6.754;2023-02-10T10:46:21;103279.84;;;16.31;46.45
28004;BME280;15330;51.234;6.754;2023-02-10T10:48:48;103287.94;;;16.41;45.39
28004;BME280;15330;51.234;6.754;2023-02-10T10:51:13;103283.03;;;15.77;47.14
28004;BME280;15330;51.234;6.754;2023-02-10T10:53:54;103282.28;;;16.53;45.51
28004;BME280;15330;51.234;6.754;2023-02-10T10:58:48;103259.31;;;17.89;41.15
28004;BME280;15330;51.234;6.754;2023-02-10T11:01:16;103267.50;;;19.30;39.96
28004;BME280;15330;51.234;6.754;2023-02-10T11:03:41;103261.22;;;19.63;38.94
28004;BME280;15330;51.234;6.754;2023-02-10T11:06:18;103260.72;;;20.10;37.40
28004;BME280;15330;51.234;6.754;2023-02-10T11:08:52;103253.00;;;20.56;37.58
28004;BME280;15330;51.234;6.754;2023-02-10T11:11:18;103256.38;;;20.41;36.71
28004;BME280;15330;51.234;6.754;2023-02-10T11:13:52;103260.50;;;16.94;42.44
28004;BME280;15330;51.234;6.754;2023-02-10T11:16:20;103249.34;;;18.08;41.17
28004;BME280;15330;51.234;6.754;2023-02-10T11:18:56;103244.22;;;15.78;44.40
28004;BME280;15330;51.234;6.754;2023-02-10T11:21:36;103244.34;;;17.58;42.13
28004;BME280;15330;51.234;6.754;2023-02-10T11:24:01;103241.69;;;17.11;42.64
28004;BME280;15330;51.234;6.754;2023-02-10T11:26:28;103251.09;;;17.44;41.45
28004;BME280;15330;51.234;6.754;2023-02-10T11:28:54;103253.66;;;16.03;44.68
28004;BME280;15330;51.234;6.754;2023-02-10T11:31:30;103241.03;;;14.29;48.12
28004;BME280;15330;51.234;6.754;2023-02-10T11:34:25;103250.38;;;14.14;48.76
28004;BME280;15330;51.234;6.754;2023-02-10T11:36:48;103235.06;;;13.60;50.28
28004;BME280;15330;51.234;6.754;2023-02-10T11:39:18;103231.88;;;13.88;50.30
28004;BME280;15330;51.234;6.754;2023-02-10T11:41:45;103236.53;;;13.86;50.43
28004;BME280;15330;51.234;6.754;2023-02-10T11:44:31;103221.88;;;13.79;50.33
28004;BME280;15330;51.234;6.754;2023-02-10T11:47:00;103228.88;;;13.26;51.50
28004;BME280;15330;51.234;6.754;2023-02-10T11:49:28;103227.91;;;13.49;51.61
28004;BME280;15330;51.234;6.754;2023-02-10T11:51:57;103225.31;;;13.59;50.77
28004;BME280;15330;51.234;6.754;2023-02-10T11:54:24;103219.66;;;13.84;50.20
28004;BME280;15330;51.234;6.754;2023-02-10T12:00:03;103220.06;;;13.57;50.29
28004;BME280;15330;51.234;6.754;2023-02-10T12:11:15;103192.38;;;12.77;53.34
28004;BME280;15330;51.234;6.754;2023-02-10T12:14:04;103198.56;;;12.21;54.18
28004;BME280;15330;51.234;6.754;2023-02-10T12:17:18;103195.78;;;11.98;55.17
28004;BME280;15330;51.234;6.754;2023-02-10T12:27:45;103181.75;;;10.58;60.41
28004;BME280;15330;51.234;6.754;2023-02-10T12:36:59;103151.13;;;11.50;59.46
28004;BME280;15330;51.234;6.754;2023-02-10T12:52:54;103156.53;;;9.69;64.21
28004;BME280;15330;51.234;6.754;2023-02-10T12:58:13;103147.34;;;10.00;64.57
28004;BME280;15330;51.234;6.754;2023-02-10T13:00:45;103142.75;;;10.42;63.03
28004;BME280;15330;51.234;6.754;2023-02-10T13:03:15;103148.44;;;10.37;61.92
28004;BME280;15330;51.234;6.754;2023-02-10T13:05:56;103141.25;;;10.38;61.40
28004;BME280;15330;51.234;6.754;2023-02-10T13:08:31;103145.56;;;9.86;62.65
28004;BME280;15330;51.234;6.754;2023-02-10T13:11:02;103144.75;;;9.99;62.74
28004;BME280;15330;51.234;6.754;2023-02-10T13:13:32;103139.94;;;9.64;64.44
28004;BME280;15330;51.234;6.754;2023-02-10T13:16:10;103139.66;;;10.08;63.46
28004;BME280;15330;51.234;6.754;2023-02-10T13:21:51;103138.59;;;10.88;61.95
28004;BME280;15330;51.234;6.754;2023-02-10T13:24:26;103146.69;;;10.49;62.42
28004;BME280;15330;51.234;6.754;2023-02-10T13:27:16;103141.78;;;10.81;61.86
28004;BME280;15330;51.234;6.754;2023-02-10T13:32:48;103139.16;;;9.89;63.01
28004;BME280;15330;51.234;6.754;2023-02-10T13:35:20;103134.19;;;9.43;65.12
28004;BME280;15330;51.234;6.754;2023-02-10T13:37:57;103121.94;;;9.80;64.24
28004;BME280;15330;51.234;6.754;2023-02-10T13:40:27;103119.41;;;9.91;63.69
28004;BME280;15330;51.234;6.754;2023-02-10T13:42:58;103114.88;;;9.79;64.54
28004;BME280;15330;51.234;6.754;2023-02-10T13:45:27;103107.41;;;10.24;62.99
28004;BME280;15330;51.234;6.754;2023-02-10T13:47:56;103107.94;;;10.29;61.81
28004;BME280;15330;51.234;6.754;2023-02-10T13:50:42;103107.53;;;10.35;59.20
28004;BME280;15330;51.234;6.754;2023-02-10T13:58:57;103099.16;;;9.87;59.21
28004;BME280;15330;51.234;6.754;2023-02-10T14:01:39;103104.56;;;9.46;59.00
28004;BME280;15330;51.234;6.754;2023-02-10T14:04:26;103092.53;;;9.80;59.13
28004;BME280;15330;51.234;6.754;2023-02-10T14:06:53;103087.44;;;10.03;58.20
28004;BME280;15330;51.234;6.754;2023-02-10T14:11:53;103100.59;;;9.93;58.06
28004;BME280;15330;51.234;6.754;2023-02-10T14:14:32;103097.66;;;9.56;58.83
28004;BME280;15330;51.234;6.754;2023-02-10T14:19:45;103099.09;;;9.62;59.42
28004;BME280;15330;51.234;6.754;2023-02-10T14:24:56;103097.91;;;9.53;59.57
28004;BME280;15330;51.234;6.754;2023-02-10T14:27:25;103107.81;;;9.51;59.51
28004;BME280;15330;51.234;6.754;2023-02-10T14:30:15;103100.34;;;9.56;59.76
28004;BME280;15330;51.234;6.754;2023-02-10T14:32:44;103079.22;;;9.66;59.18
28004;BME280;15330;51.234;6.754;2023-02-10T14:35:22;103087.03;;;9.96;58.86
28004;BME280;15330;51.234;6.754;2023-02-10T14:37:49;103080.22;;;9.78;59.76
28004;BME280;15330;51.234;6.754;2023-02-10T14:40:17;103089.50;;;9.72;60.15
28004;BME280;15330;51.234;6.754;2023-02-10T14:42:42;103080.25;;;9.10;60.98
28004;BME280;15330;51.234;6.754;2023-02-10T14:45:20;103089.41;;;9.20;61.05
28004;BME280;15330;51.234;6.754;2023-02-10T14:47:47;103085.69;;;9.23;61.18
28004;BME280;15330;51.234;6.754;2023-02-10T14:50:28;103083.28;;;9.18;61.92